Coffey, Missouri
Current Conditions -  °F | °C
As of 9:12 AM on Monday 22 Dec 2014 (Local Time) from KLWD Reporting Station
Light Rain Light Rain  
Wind Chill: 32°   Ceiling: 800
Heat Index: 39°   Visibility: 6mi
Dew Point: 37°   Wind: 12mph
Humidity: 93%   Direction: 140°SE
Pressure: 29.6"   Gusts: NA
Location:  40.11°N, 94.01°W
Report Text: KLWD 221512Z AUTO 14010KT 6SM -RA BR BKN008 OVC011 04/03 A2960 RMK AO2 P0000 T00390028
Loading
Personal Weather Stations






























Interactive Weather Map New forecast layout! Learn more

10-Day Weather Forecast

Advertisements
Track Severe Weather on mobile